Main page
METAR-TAF:

METAR-TAF

Airports :

San Sebastián Airport

San Sebastián, Spain

latitude: 43-21N, longitude: 001-48W, elevation: 5 m

Current weather observation

The report was made 31 minutes ago, at 10:00 UTC
Wind 2 kt from variable directions
Temperature 13°C
Humidity 94%
Pressure 1015 hPa
Visibility 10 km or more
no clouds below 1500 m and no cumulonimbus

METAR: LESO 061000Z VRB02KT CAVOK 13/12 Q1015

Time: 11:31 (10:31 UTC)

Forecast

The report was made 5 hours and 31 minutes ago, at 05:00 UTC
Forecast valid from 06 at 06 UTC to 07 at 06 UTC
Wind 5 kt from the Southwest
Visibility 10 km or more
Few clouds at a height of 6000 ft
Probability 30% :
Temporary
from 07 at 04 UTC to 07 at 06 UTC
Broken clouds at a height of 1000 ft

TAF: LESO 060500Z 0606/0706 22005KT 9999 FEW060 TX18/0614Z TN12/0607Z PROB30 TEMPO 0704/0706 BKN010

Weather observations and forecasts of more than 4000 airports (METAR and TAF reports).

The available stations are represented by yellow and red dots on the map.

Hover mouse over dot to see the name of the station.

Then click to see weather observations and forecasts.

To change the map : click on the green buttons with a black cross to zoom in, on the green button with a dash to zoom out, or on the green arrows for adjacent maps.


METAR-TAF: